sensor_id;sensor_type;location;lat;lon;timestamp;temperature;humidity
18717;DHT22;9487;50.892;6.906;2022-09-01T00:00:08;19.80;99.90
18717;DHT22;9487;50.892;6.906;2022-09-01T00:02:37;19.70;99.90
18717;DHT22;9487;50.892;6.906;2022-09-01T00:05:04;19.70;99.90
18717;DHT22;9487;50.892;6.906;2022-09-01T00:07:32;19.60;99.90
18717;DHT22;9487;50.892;6.906;2022-09-01T00:10:01;19.60;99.90
18717;DHT22;9487;50.892;6.906;2022-09-01T00:12:28;19.60;99.90
18717;DHT22;9487;50.892;6.906;2022-09-01T00:14:56;19.60;99.90
18717;DHT22;9487;50.892;6.906;2022-09-01T00:17:23;19.60;99.90
18717;DHT22;9487;50.892;6.906;2022-09-01T00:19:52;19.60;99.90
18717;DHT22;9487;50.892;6.906;2022-09-01T00:22:19;19.60;99.90
18717;DHT22;9487;50.892;6.906;2022-09-01T00:24:46;19.60;99.90
18717;DHT22;9487;50.892;6.906;2022-09-01T00:27:13;19.70;99.90
18717;DHT22;9487;50.892;6.906;2022-09-01T00:29:40;19.70;99.90
18717;DHT22;9487;50.892;6.906;2022-09-01T00:32:07;19.60;99.90
18717;DHT22;9487;50.892;6.906;2022-09-01T00:34:34;19.50;99.90
18717;DHT22;9487;50.892;6.906;2022-09-01T00:37:02;19.50;99.90
18717;DHT22;9487;50.892;6.906;2022-09-01T00:39:29;19.50;99.90
18717;DHT22;9487;50.892;6.906;2022-09-01T00:41:56;19.50;99.90
18717;DHT22;9487;50.892;6.906;2022-09-01T00:44:24;19.50;99.90
18717;DHT22;9487;50.892;6.906;2022-09-01T00:46:53;19.50;99.90
18717;DHT22;9487;50.892;6.906;2022-09-01T00:49:25;19.40;99.90
18717;DHT22;9487;50.892;6.906;2022-09-01T00:51:56;19.50;99.90
18717;DHT22;9487;50.892;6.906;2022-09-01T00:54:29;19.50;99.90
18717;DHT22;9487;50.892;6.906;2022-09-01T00:56:57;19.50;99.90
18717;DHT22;9487;50.892;6.906;2022-09-01T00:59:26;19.50;99.90
18717;DHT22;9487;50.892;6.906;2022-09-01T01:01:53;19.50;99.90
18717;DHT22;9487;50.892;6.906;2022-09-01T01:04:21;19.40;99.90
18717;DHT22;9487;50.892;6.906;2022-09-01T01:06:52;19.40;99.90
18717;DHT22;9487;50.892;6.906;2022-09-01T01:09:26;19.30;99.90
18717;DHT22;9487;50.892;6.906;2022-09-01T01:11:54;19.30;99.90
18717;DHT22;9487;50.892;6.906;2022-09-01T01:14:22;19.30;99.90
18717;DHT22;9487;50.892;6.906;2022-09-01T01:16:49;19.30;99.90
18717;DHT22;9487;50.892;6.906;2022-09-01T01:19:22;19.30;99.90
18717;DHT22;9487;50.892;6.906;2022-09-01T01:22:12;19.20;99.90
18717;DHT22;9487;50.892;6.906;2022-09-01T01:25:02;19.20;99.90
18717;DHT22;9487;50.892;6.906;2022-09-01T01:27:31;19.20;99.90
18717;DHT22;9487;50.892;6.906;2022-09-01T01:29:59;19.10;99.90
18717;DHT22;9487;50.892;6.906;2022-09-01T01:32:26;19.10;99.90
18717;DHT22;9487;50.892;6.906;2022-09-01T01:34:54;19.10;99.90
18717;DHT22;9487;50.892;6.906;2022-09-01T01:37:21;19.10;99.90
18717;DHT22;9487;50.892;6.906;2022-09-01T01:39:50;19.10;99.90
18717;DHT22;9487;50.892;6.906;2022-09-01T01:42:18;19.10;99.90
18717;DHT22;9487;50.892;6.906;2022-09-01T01:44:45;19.00;99.90
18717;DHT22;9487;50.892;6.906;2022-09-01T01:47:14;18.90;99.90
18717;DHT22;9487;50.892;6.906;2022-09-01T01:49:42;19.00;99.90
18717;DHT22;9487;50.892;6.906;2022-09-01T01:52:10;18.90;99.90
18717;DHT22;9487;50.892;6.906;2022-09-01T01:54:41;19.00;99.90
18717;DHT22;9487;50.892;6.906;2022-09-01T01:57:08;19.00;99.90
18717;DHT22;9487;50.892;6.906;2022-09-01T01:59:37;18.90;99.90
18717;DHT22;9487;50.892;6.906;2022-09-01T02:02:05;18.90;99.90
18717;DHT22;9487;50.892;6.906;2022-09-01T02:04:33;19.00;99.90
18717;DHT22;9487;50.892;6.906;2022-09-01T02:07:00;18.90;99.90
18717;DHT22;9487;50.892;6.906;2022-09-01T02:09:27;18.90;99.90
18717;DHT22;9487;50.892;6.906;2022-09-01T02:11:53;18.90;99.90
18717;DHT22;9487;50.892;6.906;2022-09-01T02:14:22;18.90;99.90
18717;DHT22;9487;50.892;6.906;2022-09-01T02:16:50;18.90;99.90
18717;DHT22;9487;50.892;6.906;2022-09-01T02:19:20;18.90;99.90
18717;DHT22;9487;50.892;6.906;2022-09-01T02:21:47;18.80;99.90
18717;DHT22;9487;50.892;6.906;2022-09-01T02:24:21;18.80;99.90
18717;DHT22;9487;50.892;6.906;2022-09-01T02:26:51;18.80;99.90
18717;DHT22;9487;50.892;6.906;2022-09-01T02:29:19;18.80;99.90
18717;DHT22;9487;50.892;6.906;2022-09-01T02:31:50;18.70;99.90
18717;DHT22;9487;50.892;6.906;2022-09-01T02:34:19;18.70;99.90
18717;DHT22;9487;50.892;6.906;2022-09-01T02:36:50;18.60;99.90
18717;DHT22;9487;50.892;6.906;2022-09-01T02:39:19;18.60;99.90
18717;DHT22;9487;50.892;6.906;2022-09-01T02:41:48;18.60;99.90
18717;DHT22;9487;50.892;6.906;2022-09-01T02:44:15;18.60;99.90
18717;DHT22;9487;50.892;6.906;2022-09-01T02:46:47;18.60;99.90
18717;DHT22;9487;50.892;6.906;2022-09-01T02:49:18;18.40;99.90
18717;DHT22;9487;50.892;6.906;2022-09-01T02:51:51;18.30;99.90
18717;DHT22;9487;50.892;6.906;2022-09-01T02:54:20;18.30;99.90
18717;DHT22;9487;50.892;6.906;2022-09-01T02:56:50;18.20;99.90
18717;DHT22;9487;50.892;6.906;2022-09-01T02:59:22;18.30;99.90
18717;DHT22;9487;50.892;6.906;2022-09-01T03:01:50;18.20;99.90
18717;DHT22;9487;50.892;6.906;2022-09-01T03:04:20;18.20;99.90
18717;DHT22;9487;50.892;6.906;2022-09-01T03:06:48;18.30;99.90
18717;DHT22;9487;50.892;6.906;2022-09-01T03:09:17;18.30;99.90
18717;DHT22;9487;50.892;6.906;2022-09-01T03:11:46;18.30;99.90
18717;DHT22;9487;50.892;6.906;2022-09-01T03:14:14;18.30;99.90
18717;DHT22;9487;50.892;6.906;2022-09-01T03:16:41;18.30;99.90
18717;DHT22;9487;50.892;6.906;2022-09-01T03:19:09;18.20;99.90
18717;DHT22;9487;50.892;6.906;2022-09-01T03:21:39;18.20;99.90
18717;DHT22;9487;50.892;6.906;2022-09-01T03:24:08;18.20;99.90
18717;DHT22;9487;50.892;6.906;2022-09-01T03:26:37;18.20;99.90
18717;DHT22;9487;50.892;6.906;2022-09-01T03:29:05;18.20;99.90
18717;DHT22;9487;50.892;6.906;2022-09-01T03:31:33;18.20;99.90
18717;DHT22;9487;50.892;6.906;2022-09-01T03:34:01;18.20;99.90
18717;DHT22;9487;50.892;6.906;2022-09-01T03:36:31;18.20;99.90
18717;DHT22;9487;50.892;6.906;2022-09-01T03:39:00;18.20;99.90
18717;DHT22;9487;50.892;6.906;2022-09-01T03:41:28;18.20;99.90
18717;DHT22;9487;50.892;6.906;2022-09-01T03:43:55;18.20;99.90
18717;DHT22;9487;50.892;6.906;2022-09-01T03:46:24;18.20;99.90
18717;DHT22;9487;50.892;6.906;2022-09-01T03:48:52;18.10;99.90
18717;DHT22;9487;50.892;6.906;2022-09-01T03:51:20;18.10;99.90
18717;DHT22;9487;50.892;6.906;2022-09-01T03:53:49;18.00;99.90
18717;DHT22;9487;50.892;6.906;2022-09-01T03:56:20;18.00;99.90
18717;DHT22;9487;50.892;6.906;2022-09-01T03:58:49;18.00;99.90
18717;DHT22;9487;50.892;6.906;2022-09-01T04:01:17;17.90;99.90
18717;DHT22;9487;50.892;6.906;2022-09-01T04:03:44;17.80;99.90
18717;DHT22;9487;50.892;6.906;2022-09-01T04:06:13;17.80;99.90
18717;DHT22;9487;50.892;6.906;2022-09-01T04:08:43;17.70;99.90
18717;DHT22;9487;50.892;6.906;2022-09-01T04:11:13;17.70;99.90
18717;DHT22;9487;50.892;6.906;2022-09-01T04:13:44;17.60;99.90
18717;DHT22;9487;50.892;6.906;2022-09-01T04:16:19;17.50;99.90
18717;DHT22;9487;50.892;6.906;2022-09-01T04:19:04;17.50;99.90
18717;DHT22;9487;50.892;6.906;2022-09-01T04:21:41;17.60;99.90
18717;DHT22;9487;50.892;6.906;2022-09-01T04:24:09;17.50;99.90
18717;DHT22;9487;50.892;6.906;2022-09-01T04:26:38;17.50;99.90
18717;DHT22;9487;50.892;6.906;2022-09-01T04:29:07;17.50;99.90
18717;DHT22;9487;50.892;6.906;2022-09-01T04:31:37;17.40;99.90
18717;DHT22;9487;50.892;6.906;2022-09-01T04:34:05;17.50;99.90
18717;DHT22;9487;50.892;6.906;2022-09-01T04:36:39;17.40;99.90
18717;DHT22;9487;50.892;6.906;2022-09-01T04:39:08;17.30;99.90
18717;DHT22;9487;50.892;6.906;2022-09-01T04:41:39;17.20;99.90
18717;DHT22;9487;50.892;6.906;2022-09-01T04:44:08;17.20;99.90
18717;DHT22;9487;50.892;6.906;2022-09-01T04:46:38;17.20;99.90
18717;DHT22;9487;50.892;6.906;2022-09-01T04:49:07;17.20;99.90
18717;DHT22;9487;50.892;6.906;2022-09-01T04:51:37;17.20;99.90
18717;DHT22;9487;50.892;6.906;2022-09-01T04:54:04;17.10;99.90
18717;DHT22;9487;50.892;6.906;2022-09-01T04:56:37;16.90;99.90
18717;DHT22;9487;50.892;6.906;2022-09-01T04:59:04;16.70;99.90
18717;DHT22;9487;50.892;6.906;2022-09-01T05:01:34;16.60;99.90
18717;DHT22;9487;50.892;6.906;2022-09-01T05:04:08;16.50;99.90
18717;DHT22;9487;50.892;6.906;2022-09-01T05:06:39;16.70;99.90
18717;DHT22;9487;50.892;6.906;2022-09-01T05:09:07;16.90;99.90
18717;DHT22;9487;50.892;6.906;2022-09-01T05:11:36;17.00;99.90
18717;DHT22;9487;50.892;6.906;2022-09-01T05:14:04;17.10;99.90
18717;DHT22;9487;50.892;6.906;2022-09-01T05:16:33;17.10;99.90
18717;DHT22;9487;50.892;6.906;2022-09-01T05:19:02;17.20;99.90
18717;DHT22;9487;50.892;6.906;2022-09-01T05:21:30;17.20;99.90
18717;DHT22;9487;50.892;6.906;2022-09-01T05:23:58;17.20;99.90
18717;DHT22;9487;50.892;6.906;2022-09-01T05:26:28;17.30;99.90
18717;DHT22;9487;50.892;6.906;2022-09-01T05:28:57;17.30;99.90
18717;DHT22;9487;50.892;6.906;2022-09-01T05:31:27;17.40;99.90
18717;DHT22;9487;50.892;6.906;2022-09-01T05:34:00;17.50;99.90
18717;DHT22;9487;50.892;6.906;2022-09-01T05:36:27;17.60;99.90
18717;DHT22;9487;50.892;6.906;2022-09-01T05:38:58;17.60;99.90
18717;DHT22;9487;50.892;6.906;2022-09-01T05:41:26;17.70;99.90
18717;DHT22;9487;50.892;6.906;2022-09-01T05:43:53;17.80;99.90
18717;DHT22;9487;50.892;6.906;2022-09-01T05:46:23;17.90;99.90
18717;DHT22;9487;50.892;6.906;2022-09-01T05:48:52;18.00;99.90
18717;DHT22;9487;50.892;6.906;2022-09-01T05:51:23;18.10;99.90
18717;DHT22;9487;50.892;6.906;2022-09-01T05:53:51;18.20;99.90
18717;DHT22;9487;50.892;6.906;2022-09-01T05:56:21;18.30;99.90
18717;DHT22;9487;50.892;6.906;2022-09-01T05:58:49;18.40;99.90
18717;DHT22;9487;50.892;6.906;2022-09-01T06:01:18;18.60;99.90
18717;DHT22;9487;50.892;6.906;2022-09-01T06:03:48;18.60;99.90
18717;DHT22;9487;50.892;6.906;2022-09-01T06:06:20;18.60;99.90
18717;DHT22;9487;50.892;6.906;2022-09-01T06:08:48;18.70;99.90
18717;DHT22;9487;50.892;6.906;2022-09-01T06:11:15;18.60;99.90
18717;DHT22;9487;50.892;6.906;2022-09-01T06:13:43;18.70;99.90
18717;DHT22;9487;50.892;6.906;2022-09-01T06:16:12;18.80;99.90
18717;DHT22;9487;50.892;6.906;2022-09-01T06:18:41;18.80;99.90
18717;DHT22;9487;50.892;6.906;2022-09-01T06:21:09;19.00;99.90
18717;DHT22;9487;50.892;6.906;2022-09-01T06:23:38;19.60;99.90
18717;DHT22;9487;50.892;6.906;2022-09-01T06:26:05;19.80;99.90
18717;DHT22;9487;50.892;6.906;2022-09-01T06:28:32;19.90;99.90
18717;DHT22;9487;50.892;6.906;2022-09-01T06:31:05;20.00;99.90
18717;DHT22;9487;50.892;6.906;2022-09-01T06:33:32;19.80;99.90
18717;DHT22;9487;50.892;6.906;2022-09-01T06:36:01;19.60;99.90
18717;DHT22;9487;50.892;6.906;2022-09-01T06:38:28;19.60;99.90
18717;DHT22;9487;50.892;6.906;2022-09-01T06:41:00;19.70;99.90
18717;DHT22;9487;50.892;6.906;2022-09-01T06:43:29;20.00;99.90
18717;DHT22;9487;50.892;6.906;2022-09-01T06:45:59;20.20;99.90
18717;DHT22;9487;50.892;6.906;2022-09-01T06:48:26;20.60;99.90
18717;DHT22;9487;50.892;6.906;2022-09-01T06:50:58;20.90;99.90
18717;DHT22;9487;50.892;6.906;2022-09-01T06:53:28;20.90;99.90
18717;DHT22;9487;50.892;6.906;2022-09-01T06:55:57;21.00;99.90
18717;DHT22;9487;50.892;6.906;2022-09-01T06:58:25;21.10;99.90
18717;DHT22;9487;50.892;6.906;2022-09-01T07:00:52;21.10;99.90
18717;DHT22;9487;50.892;6.906;2022-09-01T07:03:19;21.00;99.90
18717;DHT22;9487;50.892;6.906;2022-09-01T07:05:49;20.80;99.90
18717;DHT22;9487;50.892;6.906;2022-09-01T07:08:17;20.90;99.90
18717;DHT22;9487;50.892;6.906;2022-09-01T07:10:47;20.60;99.90
18717;DHT22;9487;50.892;6.906;2022-09-01T07:13:17;20.50;99.90
18717;DHT22;9487;50.892;6.906;2022-09-01T07:15:50;20.50;99.90
18717;DHT22;9487;50.892;6.906;2022-09-01T07:18:18;20.40;99.90
18717;DHT22;9487;50.892;6.906;2022-09-01T07:20:46;20.60;99.90
18717;DHT22;9487;50.892;6.906;2022-09-01T07:23:14;20.70;99.90
18717;DHT22;9487;50.892;6.906;2022-09-01T07:25:43;20.90;99.90
18717;DHT22;9487;50.892;6.906;2022-09-01T07:28:11;21.20;99.90
18717;DHT22;9487;50.892;6.906;2022-09-01T07:30:40;21.10;99.90
18717;DHT22;9487;50.892;6.906;2022-09-01T07:33:09;20.90;99.90
18717;DHT22;9487;50.892;6.906;2022-09-01T07:35:39;21.00;99.90
18717;DHT22;9487;50.892;6.906;2022-09-01T07:38:07;20.90;99.90
18717;DHT22;9487;50.892;6.906;2022-09-01T07:40:34;20.70;99.90
18717;DHT22;9487;50.892;6.906;2022-09-01T07:43:04;20.90;99.90
18717;DHT22;9487;50.892;6.906;2022-09-01T07:45:33;21.10;99.90
18717;DHT22;9487;50.892;6.906;2022-09-01T07:48:03;21.20;99.90
18717;DHT22;9487;50.892;6.906;2022-09-01T07:50:32;21.30;99.90
18717;DHT22;9487;50.892;6.906;2022-09-01T07:52:59;21.60;99.90
18717;DHT22;9487;50.892;6.906;2022-09-01T07:55:26;21.70;99.90
18717;DHT22;9487;50.892;6.906;2022-09-01T07:57:53;21.50;99.90
18717;DHT22;9487;50.892;6.906;2022-09-01T08:00:22;21.80;99.90
18717;DHT22;9487;50.892;6.906;2022-09-01T08:02:49;21.90;99.90
18717;DHT22;9487;50.892;6.906;2022-09-01T08:05:17;21.90;99.90
18717;DHT22;9487;50.892;6.906;2022-09-01T08:07:48;21.50;99.90
18717;DHT22;9487;50.892;6.906;2022-09-01T08:10:15;21.30;99.90
18717;DHT22;9487;50.892;6.906;2022-09-01T08:12:42;21.50;99.90
18717;DHT22;9487;50.892;6.906;2022-09-01T08:15:09;21.60;99.90
18717;DHT22;9487;50.892;6.906;2022-09-01T08:17:38;21.50;99.90
18717;DHT22;9487;50.892;6.906;2022-09-01T08:20:06;21.50;99.90
18717;DHT22;9487;50.892;6.906;2022-09-01T08:22:34;21.70;99.90
18717;DHT22;9487;50.892;6.906;2022-09-01T08:25:05;22.10;99.90
18717;DHT22;9487;50.892;6.906;2022-09-01T08:27:33;22.00;99.90
18717;DHT22;9487;50.892;6.906;2022-09-01T08:30:04;22.00;99.90
18717;DHT22;9487;50.892;6.906;2022-09-01T08:32:32;22.00;99.90
18717;DHT22;9487;50.892;6.906;2022-09-01T08:34:59;21.80;99.90
18717;DHT22;9487;50.892;6.906;2022-09-01T08:37:27;21.90;99.90
18717;DHT22;9487;50.892;6.906;2022-09-01T08:39:54;22.10;99.90
18717;DHT22;9487;50.892;6.906;2022-09-01T08:42:35;22.20;99.90
18717;DHT22;9487;50.892;6.906;2022-09-01T08:45:12;22.10;99.90
18717;DHT22;9487;50.892;6.906;2022-09-01T08:47:41;22.30;99.90
18717;DHT22;9487;50.892;6.906;2022-09-01T08:50:08;22.30;99.90
18717;DHT22;9487;50.892;6.906;2022-09-01T08:52:37;22.40;99.90
18717;DHT22;9487;50.892;6.906;2022-09-01T08:55:11;22.60;99.90
18717;DHT22;9487;50.892;6.906;2022-09-01T08:57:42;22.70;99.90
18717;DHT22;9487;50.892;6.906;2022-09-01T09:00:12;22.60;99.90
18717;DHT22;9487;50.892;6.906;2022-09-01T09:02:50;22.60;99.90
18717;DHT22;9487;50.892;6.906;2022-09-01T09:05:28;22.50;99.90
18717;DHT22;9487;50.892;6.906;2022-09-01T09:10:59;23.00;99.90
18717;DHT22;9487;50.892;6.906;2022-09-01T09:13:38;22.90;99.90
18717;DHT22;9487;50.892;6.906;2022-09-01T09:16:09;22.80;99.90
18717;DHT22;9487;50.892;6.906;2022-09-01T09:18:41;22.90;99.90
18717;DHT22;9487;50.892;6.906;2022-09-01T09:21:14;23.10;99.90
18717;DHT22;9487;50.892;6.906;2022-09-01T09:23:46;22.90;99.90
18717;DHT22;9487;50.892;6.906;2022-09-01T09:26:14;23.20;99.90
18717;DHT22;9487;50.892;6.906;2022-09-01T09:28:46;23.20;99.90
18717;DHT22;9487;50.892;6.906;2022-09-01T09:31:25;23.40;99.90
18717;DHT22;9487;50.892;6.906;2022-09-01T09:33:52;23.60;99.90
18717;DHT22;9487;50.892;6.906;2022-09-01T09:36:22;23.30;99.90
18717;DHT22;9487;50.892;6.906;2022-09-01T09:39:03;23.50;99.90
18717;DHT22;9487;50.892;6.906;2022-09-01T09:41:30;23.70;99.90
18717;DHT22;9487;50.892;6.906;2022-09-01T09:44:04;23.40;99.90
18717;DHT22;9487;50.892;6.906;2022-09-01T09:46:34;23.30;99.90
18717;DHT22;9487;50.892;6.906;2022-09-01T09:49:10;23.70;99.90
18717;DHT22;9487;50.892;6.906;2022-09-01T09:51:39;23.90;99.90
18717;DHT22;9487;50.892;6.906;2022-09-01T09:54:11;24.20;99.90
18717;DHT22;9487;50.892;6.906;2022-09-01T09:56:39;24.10;99.90
18717;DHT22;9487;50.892;6.906;2022-09-01T09:59:18;24.10;99.90
18717;DHT22;9487;50.892;6.906;2022-09-01T10:01:46;24.20;99.90
18717;DHT22;9487;50.892;6.906;2022-09-01T10:04:33;24.20;99.90
18717;DHT22;9487;50.892;6.906;2022-09-01T10:07:00;24.50;99.90
18717;DHT22;9487;50.892;6.906;2022-09-01T10:09:35;24.60;99.90
18717;DHT22;9487;50.892;6.906;2022-09-01T10:12:03;24.50;99.90
18717;DHT22;9487;50.892;6.906;2022-09-01T10:14:37;24.50;99.90
18717;DHT22;9487;50.892;6.906;2022-09-01T10:17:11;24.60;99.90
18717;DHT22;9487;50.892;6.906;2022-09-01T10:19:50;24.60;99.90
18717;DHT22;9487;50.892;6.906;2022-09-01T10:22:19;24.50;99.90
18717;DHT22;9487;50.892;6.906;2022-09-01T10:24:46;24.60;99.90
18717;DHT22;9487;50.892;6.906;2022-09-01T10:27:18;24.80;99.90
18717;DHT22;9487;50.892;6.906;2022-09-01T10:29:51;25.00;99.90
18717;DHT22;9487;50.892;6.906;2022-09-01T10:32:25;25.10;99.90
18717;DHT22;9487;50.892;6.906;2022-09-01T10:34:53;25.30;99.90
18717;DHT22;9487;50.892;6.906;2022-09-01T10:37:21;25.40;99.80
18717;DHT22;9487;50.892;6.906;2022-09-01T10:40:11;25.60;98.10
18717;DHT22;9487;50.892;6.906;2022-09-01T10:42:39;25.40;97.80
18717;DHT22;9487;50.892;6.906;2022-09-01T10:45:16;25.20;98.00
18717;DHT22;9487;50.892;6.906;2022-09-01T10:47:44;25.30;96.90
18717;DHT22;9487;50.892;6.906;2022-09-01T10:50:28;25.50;96.60
18717;DHT22;9487;50.892;6.906;2022-09-01T10:53:05;25.30;94.30
18717;DHT22;9487;50.892;6.906;2022-09-01T10:55:43;25.40;94.90
18717;DHT22;9487;50.892;6.906;2022-09-01T10:58:42;25.50;94.00
18717;DHT22;9487;50.892;6.906;2022-09-01T11:01:12;25.50;94.90
18717;DHT22;9487;50.892;6.906;2022-09-01T11:03:50;25.30;94.60
18717;DHT22;9487;50.892;6.906;2022-09-01T11:06:55;25.10;95.20
18717;DHT22;9487;50.892;6.906;2022-09-01T11:09:26;25.20;96.10
18717;DHT22;9487;50.892;6.906;2022-09-01T11:12:17;25.00;96.80
18717;DHT22;9487;50.892;6.906;2022-09-01T11:14:48;25.20;94.20
18717;DHT22;9487;50.892;6.906;2022-09-01T11:17:20;25.40;93.10
18717;DHT22;9487;50.892;6.906;2022-09-01T11:19:57;25.60;91.60
18717;DHT22;9487;50.892;6.906;2022-09-01T11:22:31;25.60;93.20
18717;DHT22;9487;50.892;6.906;2022-09-01T11:25:35;24.90;93.20
18717;DHT22;9487;50.892;6.906;2022-09-01T11:28:39;24.40;95.30
18717;DHT22;9487;50.892;6.906;2022-09-01T11:31:27;24.80;96.00
18717;DHT22;9487;50.892;6.906;2022-09-01T11:34:17;25.40;95.40
18717;DHT22;9487;50.892;6.906;2022-09-01T11:36:52;25.70;94.10
18717;DHT22;9487;50.892;6.906;2022-09-01T11:39:30;25.90;94.10
18717;DHT22;9487;50.892;6.906;2022-09-01T11:42:00;26.00;93.40
18717;DHT22;9487;50.892;6.906;2022-09-01T11:44:36;26.10;92.80
18717;DHT22;9487;50.892;6.906;2022-09-01T11:47:09;26.10;92.30
18717;DHT22;9487;50.892;6.906;2022-09-01T11:49:44;25.60;93.10
18717;DHT22;9487;50.892;6.906;2022-09-01T11:52:14;25.40;93.30
18717;DHT22;9487;50.892;6.906;2022-09-01T11:54:43;25.30;93.00
18717;DHT22;9487;50.892;6.906;2022-09-01T11:57:19;25.40;93.00
18717;DHT22;9487;50.892;6.906;2022-09-01T11:59:46;25.70;93.60
18717;DHT22;9487;50.892;6.906;2022-09-01T12:02:17;25.80;92.90
18717;DHT22;9487;50.892;6.906;2022-09-01T12:04:47;25.80;93.40
18717;DHT22;9487;50.892;6.906;2022-09-01T12:07:26;25.80;93.50
18717;DHT22;9487;50.892;6.906;2022-09-01T12:09:53;25.70;93.30
18717;DHT22;9487;50.892;6.906;2022-09-01T12:12:31;25.50;93.70
18717;DHT22;9487;50.892;6.906;2022-09-01T12:14:58;25.30;94.10
18717;DHT22;9487;50.892;6.906;2022-09-01T12:17:26;25.30;94.40
18717;DHT22;9487;50.892;6.906;2022-09-01T12:19:55;25.00;94.60
18717;DHT22;9487;50.892;6.906;2022-09-01T12:22:22;24.90;95.30
18717;DHT22;9487;50.892;6.906;2022-09-01T12:24:50;24.90;96.10
18717;DHT22;9487;50.892;6.906;2022-09-01T12:27:18;24.90;97.10
18717;DHT22;9487;50.892;6.906;2022-09-01T12:29:46;24.80;97.10
18717;DHT22;9487;50.892;6.906;2022-09-01T12:32:13;24.90;97.10
18717;DHT22;9487;50.892;6.906;2022-09-01T12:34:42;24.90;97.90
18717;DHT22;9487;50.892;6.906;2022-09-01T12:37:20;24.90;97.00
18717;DHT22;9487;50.892;6.906;2022-09-01T12:39:49;24.90;97.40
18717;DHT22;9487;50.892;6.906;2022-09-01T12:42:24;24.70;96.10
18717;DHT22;9487;50.892;6.906;2022-09-01T12:44:54;24.70;97.30
18717;DHT22;9487;50.892;6.906;2022-09-01T12:47:47;24.80;97.90
18717;DHT22;9487;50.892;6.906;2022-09-01T12:50:43;24.80;97.70
18717;DHT22;9487;50.892;6.906;2022-09-01T12:53:22;24.90;98.00
18717;DHT22;9487;50.892;6.906;2022-09-01T12:56:17;24.80;97.60
18717;DHT22;9487;50.892;6.906;2022-09-01T12:58:48;24.90;97.10
18717;DHT22;9487;50.892;6.906;2022-09-01T13:01:30;25.00;95.60
18717;DHT22;9487;50.892;6.906;2022-09-01T13:04:23;25.10;95.30
18717;DHT22;9487;50.892;6.906;2022-09-01T13:06:51;25.40;95.60
18717;DHT22;9487;50.892;6.906;2022-09-01T13:09:19;25.70;95.70
18717;DHT22;9487;50.892;6.906;2022-09-01T13:11:47;26.10;94.90
18717;DHT22;9487;50.892;6.906;2022-09-01T13:14:15;26.40;93.60
18717;DHT22;9487;50.892;6.906;2022-09-01T13:16:43;26.60;92.30
18717;DHT22;9487;50.892;6.906;2022-09-01T13:19:10;26.50;90.90
18717;DHT22;9487;50.892;6.906;2022-09-01T13:21:37;26.50;91.60
18717;DHT22;9487;50.892;6.906;2022-09-01T13:24:05;26.70;90.60
18717;DHT22;9487;50.892;6.906;2022-09-01T13:26:36;27.00;89.50
18717;DHT22;9487;50.892;6.906;2022-09-01T13:29:03;27.00;89.50
18717;DHT22;9487;50.892;6.906;2022-09-01T13:31:30;26.80;89.50
18717;DHT22;9487;50.892;6.906;2022-09-01T13:33:57;26.60;90.30
18717;DHT22;9487;50.892;6.906;2022-09-01T13:36:24;26.40;90.80
18717;DHT22;9487;50.892;6.906;2022-09-01T13:38:51;26.20;90.50
18717;DHT22;9487;50.892;6.906;2022-09-01T13:41:18;26.00;91.00
18717;DHT22;9487;50.892;6.906;2022-09-01T13:43:46;25.90;92.00
18717;DHT22;9487;50.892;6.906;2022-09-01T13:46:13;25.60;93.00
18717;DHT22;9487;50.892;6.906;2022-09-01T13:48:40;25.70;93.50
18717;DHT22;9487;50.892;6.906;2022-09-01T13:51:09;25.90;92.80
18717;DHT22;9487;50.892;6.906;2022-09-01T13:53:36;26.10;91.30
18717;DHT22;9487;50.892;6.906;2022-09-01T13:56:03;26.10;89.00
18717;DHT22;9487;50.892;6.906;2022-09-01T13:58:30;26.30;90.40
18717;DHT22;9487;50.892;6.906;2022-09-01T14:00:58;26.30;89.80
18717;DHT22;9487;50.892;6.906;2022-09-01T14:03:25;26.30;90.00
18717;DHT22;9487;50.892;6.906;2022-09-01T14:05:52;26.50;88.20
18717;DHT22;9487;50.892;6.906;2022-09-01T14:08:20;26.60;86.70
18717;DHT22;9487;50.892;6.906;2022-09-01T14:10:50;26.50;86.30
18717;DHT22;9487;50.892;6.906;2022-09-01T14:13:18;26.50;86.90
18717;DHT22;9487;50.892;6.906;2022-09-01T14:15:46;26.40;87.60
18717;DHT22;9487;50.892;6.906;2022-09-01T14:18:15;26.20;87.80
18717;DHT22;9487;50.892;6.906;2022-09-01T14:20:43;25.90;88.20
18717;DHT22;9487;50.892;6.906;2022-09-01T14:23:11;25.90;90.50
18717;DHT22;9487;50.892;6.906;2022-09-01T14:25:41;25.60;91.30
18717;DHT22;9487;50.892;6.906;2022-09-01T14:28:09;25.60;92.20
18717;DHT22;9487;50.892;6.906;2022-09-01T14:30:35;25.90;93.20
18717;DHT22;9487;50.892;6.906;2022-09-01T14:33:03;26.30;91.80
18717;DHT22;9487;50.892;6.906;2022-09-01T14:35:31;26.50;91.70
18717;DHT22;9487;50.892;6.906;2022-09-01T14:38:00;26.70;91.40
18717;DHT22;9487;50.892;6.906;2022-09-01T14:40:27;26.90;89.00
18717;DHT22;9487;50.892;6.906;2022-09-01T14:42:54;27.00;86.00
18717;DHT22;9487;50.892;6.906;2022-09-01T14:45:23;27.20;84.00
18717;DHT22;9487;50.892;6.906;2022-09-01T14:47:53;27.00;83.70
18717;DHT22;9487;50.892;6.906;2022-09-01T14:50:22;27.00;84.00
18717;DHT22;9487;50.892;6.906;2022-09-01T14:52:54;26.80;84.10
18717;DHT22;9487;50.892;6.906;2022-09-01T14:55:22;27.10;85.80
18717;DHT22;9487;50.892;6.906;2022-09-01T14:57:50;27.10;83.80
18717;DHT22;9487;50.892;6.906;2022-09-01T15:00:18;27.10;82.40
18717;DHT22;9487;50.892;6.906;2022-09-01T15:02:45;27.30;84.80
18717;DHT22;9487;50.892;6.906;2022-09-01T15:05:13;27.60;82.40
18717;DHT22;9487;50.892;6.906;2022-09-01T15:07:40;27.40;78.60
18717;DHT22;9487;50.892;6.906;2022-09-01T15:10:10;27.70;77.90
18717;DHT22;9487;50.892;6.906;2022-09-01T15:12:38;27.70;78.00
18717;DHT22;9487;50.892;6.906;2022-09-01T15:15:06;28.00;79.70
18717;DHT22;9487;50.892;6.906;2022-09-01T15:17:34;28.30;77.30
18717;DHT22;9487;50.892;6.906;2022-09-01T15:20:02;28.40;76.50
18717;DHT22;9487;50.892;6.906;2022-09-01T15:22:43;28.50;75.90
18717;DHT22;9487;50.892;6.906;2022-09-01T15:25:12;28.30;73.90
18717;DHT22;9487;50.892;6.906;2022-09-01T15:27:39;28.40;73.20
18717;DHT22;9487;50.892;6.906;2022-09-01T15:30:07;28.60;73.30
18717;DHT22;9487;50.892;6.906;2022-09-01T15:32:39;28.80;72.50
18717;DHT22;9487;50.892;6.906;2022-09-01T15:35:06;28.90;71.40
18717;DHT22;9487;50.892;6.906;2022-09-01T15:37:33;28.90;71.40
18717;DHT22;9487;50.892;6.906;2022-09-01T15:40:00;29.00;71.10
18717;DHT22;9487;50.892;6.906;2022-09-01T15:42:28;29.20;70.50
18717;DHT22;9487;50.892;6.906;2022-09-01T15:44:55;29.20;70.10
18717;DHT22;9487;50.892;6.906;2022-09-01T15:47:22;29.30;71.40
18717;DHT22;9487;50.892;6.906;2022-09-01T15:49:50;29.50;69.90
18717;DHT22;9487;50.892;6.906;2022-09-01T15:52:17;29.60;68.60
18717;DHT22;9487;50.892;6.906;2022-09-01T15:54:45;29.60;68.80
18717;DHT22;9487;50.892;6.906;2022-09-01T15:57:12;29.70;68.50
18717;DHT22;9487;50.892;6.906;2022-09-01T15:59:40;29.90;68.50
18717;DHT22;9487;50.892;6.906;2022-09-01T16:02:08;30.00;67.80
18717;DHT22;9487;50.892;6.906;2022-09-01T16:04:36;30.20;67.40
18717;DHT22;9487;50.892;6.906;2022-09-01T16:07:04;30.10;66.00